Αναφορές METAR Αεροδρομίων

 

LGTS - THESSALONIKI - GREECE
Ενημερώθηκε: 15/07/2020 02:20
Αίθριος
Αίθριος
 Ανεμος από ΑΝΑ
Ανεμος: ΑΝΑ 9 km/h
Θερμοκρασία: 19°C
Σημ. Δρόσου: 15°C
Υγρασία: 78%
Βαρόμετρο: 1014 hPa
Περίληψη: Αίθριος
Visibility: greater than 10 km
2020/07/14 23:20 LGTS 142320Z 12005KT CAVOK 19/15 Q1014 NOSIG
LGLR - LARTISA - GREECE
Ενημερώθηκε: 15/07/2020 00:50
NOT Current
Μερικώς νεφελώδης
Μερικώς νεφελώδης
 Ανεμος από calm
Ανεμος: Απνοια
Θερμοκρασία: 21°C
Σημ. Δρόσου: 14°C
Υγρασία: 64%
Βαρόμετρο: 1014 hPa
Clouds: Μερικώς νεφελώδης
Visibility: 10 km
Cloud details: Αραιές Νεφώσεις 914 m
Μερικώς νεφελώδης 2438 m
2020/07/14 21:50 LGLR 142150Z 00000KT 9999 FEW030 SCT080 21/14 Q1014 BLU
 
LGKZ - KOZANI - GREECE
Ενημερώθηκε: 15/07/2020 02:20
Ασθενής βροχή
Ασθενής βροχή
 Ανεμος από calm
Ανεμος: Απνοια
Θερμοκρασία: 17°C
Σημ. Δρόσου: 15°C
Υγρασία: 88%
Βαρόμετρο: 1017 hPa
Περίληψη: Ασθενής βροχή
2020/07/14 23:20 LGKZ 142320Z AUTO 00000KT //// -RA ////// 17/15 Q1017 RE//
LGKV - KAVALA - GREECE
Ενημερώθηκε: 14/07/2020 22:50
NOT Current
Αραιές Νεφώσεις
Αραιές Νεφώσεις
 Ανεμος από ΝΝΑ
Ανεμος: ΝΝΑ 6 km/h
Θερμοκρασία: 21°C
Σημ. Δρόσου: 14°C
Υγρασία: 64%
Βαρόμετρο: 1013 hPa
Clouds: Αραιές Νεφώσεις
Visibility: 10 km
Cloud details: Αραιές Νεφώσεις 914 m
2020/07/14 19:50 LGKV 141950Z 16003KT 9999 FEW030 21/14 Q1013
 
LGIO - IOANNINA - GREECE
Ενημερώθηκε: 15/07/2020 02:20

 Ανεμος από varies
Ανεμος: varies 4 km/h
Θερμοκρασία: 18°C
Σημ. Δρόσου: 17°C
Υγρασία: 94%
Βαρόμετρο: 1015 hPa
2020/07/14 23:20 LGIO 142320Z AUTO VRB02KT //// // ////// 18/17 Q1015 RE//
LGBL - BOLOS - GREECE
Ενημερώθηκε: 15/07/2020 01:50
Αραιές Νεφώσεις
Αραιές Νεφώσεις
 Ανεμος από calm
Ανεμος: Απνοια
Θερμοκρασία: 19°C
Σημ. Δρόσου: 12°C
Υγρασία: 64%
Βαρόμετρο: 1014 hPa
Clouds: Αραιές Νεφώσεις
Visibility: 10 km
Cloud details: Αραιές Νεφώσεις 914 m
2020/07/14 22:50 LGBL 142250Z 00000KT 9999 FEW030 19/12 Q1014
 
LGMT - MITILINI - GREECE
Ενημερώθηκε: 15/07/2020 01:50
Αίθριος
Αίθριος
 Ανεμος από varies
Ανεμος: varies 6 km/h
Θερμοκρασία: 22°C
Σημ. Δρόσου: 17°C
Υγρασία: 73%
Βαρόμετρο: 1011 hPa
Περίληψη: Αίθριος
Visibility: greater than 10 km
2020/07/14 22:50 LGMT 142250Z VRB03KT CAVOK 22/17 Q1011
LGAV - ATHENS - GREECE
Ενημερώθηκε: 15/07/2020 02:20
Αίθριος
Αίθριος
 Ανεμος από Β
Ανεμος: Β 4 km/h
Θερμοκρασία: 20°C
Σημ. Δρόσου: 9°C
Υγρασία: 49%
Βαρόμετρο: 1014 hPa
Περίληψη: Αίθριος
Visibility: greater than 10 km
2020/07/14 23:20 LGAV 142320Z 35002KT CAVOK 20/09 Q1014 NOSIG
 
LGRP - RODOS - GREECE
Ενημερώθηκε: 15/07/2020 02:20
Αίθριος
Αίθριος
 Ανεμος από ΝΔ
Ανεμος: ΝΔ 19 km/h
Θερμοκρασία: 25°C
Σημ. Δρόσου: 18°C
Υγρασία: 65%
Βαρόμετρο: 1008 hPa
Περίληψη: Αίθριος
Visibility: greater than 10 km
2020/07/14 23:20 LGRP 142320Z 23010KT CAVOK 25/18 Q1008 NOSIG
LGIR - HRAKLIO/KRITI - GREECE
Ενημερώθηκε: 15/07/2020 02:20
Αραιές Νεφώσεις
Αραιές Νεφώσεις
 Ανεμος από ΔΒΔ
Ανεμος: ΔΒΔ 13 km/h
Θερμοκρασία: 23°C
Σημ. Δρόσου: 17°C
Υγρασία: 69%
Βαρόμετρο: 1012 hPa
Clouds: Αραιές Νεφώσεις
Visibility: 10 km
Cloud details: Αραιές Νεφώσεις 762 m
2020/07/14 23:20 LGIR 142320Z 30007KT 9999 FEW025 23/17 Q1012 NOSIG
 
LGMK - MIKONOS - GREECE
Ενημερώθηκε: 15/07/2020 01:50
Αίθριος
Αίθριος
 Ανεμος από varies
Ανεμος: varies 0 km/h
Θερμοκρασία: 22°C
Σημ. Δρόσου: 15°C
Υγρασία: 65%
Βαρόμετρο: 1011 hPa
Περίληψη: Αίθριος
Visibility: greater than 10 km
2020/07/14 22:50 LGMK 142250Z /////KT CAVOK 22/15 Q1011
LGKR - KERKIRA - GREECE
Ενημερώθηκε: 15/07/2020 02:20
Αίθριος
Αίθριος
 Ανεμος από calm
Ανεμος: Απνοια
Θερμοκρασία: 20°C
Σημ. Δρόσου: 17°C
Υγρασία: 83%
Βαρόμετρο: 1012 hPa
Περίληψη: Αίθριος
Visibility: greater than 10 km
2020/07/14 23:20 LGKR 142320Z 00000KT CAVOK 20/17 Q1012 NOSIG